• Join FlightAware (Why Join?)
  • Login
  • US Flag 
09:32AM EDT


 

Airport Tracker/Info


-or-


 

Live Flight TrackerFlight Track Log ✈ VH-SFR ✈ 01-May-2013 ✈ YSBK / BWU - YSBK / BWU

Flight Track Log - Related Links

Times and Time Zones

All times are in EDT time to prevent confusion due to time zone crossing. See the VH-SFR flight status page for this flight to view local times or setup timezone preferences in your user account.

Time Position Orientation Groundspeed Altitude Reporting Facility
EDT Latitude Longitude Course Direction KTS MPH feet Rate Location/Type
12:19AM -33.9244 150.9884 North 5,000  Level Aus ATC (Calculated)
12:21AM -33.9029 150.9923 315° West 84 97 1,500 -1,680 Descending Aus ATC (RADAR)
12:21AM -33.8989 150.9874 315° West 80 92 1,700 660 Climbing Aus ATC (RADAR)
12:22AM -33.8891 150.9754 314° West 76 87 2,100 660 Climbing Aus ATC (RADAR)
12:23AM -33.8751 150.9595 317° Northwest 70 81 2,800 540 Climbing Aus ATC (RADAR)
12:24AM -33.8634 150.9507 328° Northwest 82 94 3,000 60 Climbing Aus ATC (RADAR)
12:24AM -33.8446 150.9351 326° Northwest 86 99 2,900 300 Descending Aus ATC (RADAR)
12:26AM -33.8196 150.9182 331° Northwest 72 83 3,800 600 Climbing Aus ATC (RADAR)
12:26AM -33.8156 150.9156 332° Northwest 67 77 3,900 360 Climbing Aus ATC (RADAR)
12:27AM -33.8043 150.9087 333° Northwest 78 90 4,100 60 Climbing Aus ATC (RADAR)
12:28AM -33.7839 150.8932 328° Northwest 92 106 4,000 -120 Descending Aus ATC (RADAR)
12:28AM -33.7704 150.8822 326° Northwest 92 106 4,000 180 Level Aus ATC (RADAR)
12:29AM -33.7556 150.8708 327° Northwest 83 96 4,300 360 Climbing Aus ATC (RADAR)
12:30AM -33.7469 150.8649 331° Northwest 71 82 4,600 180 Climbing Aus ATC (RADAR)
12:33AM -33.6787 150.8155 329° Northwest 79 91 5,100 60 Climbing Aus ATC (RADAR)
12:34AM -33.6409 150.7968 338° Northwest 96 110 4,900 -120 Descending Aus ATC (RADAR)
12:35AM -33.6263 150.7922 345° North 93 107 4,900 -120 Level Aus ATC (RADAR)
12:36AM -33.6019 150.7856 347° North 91 105 4,800  Descending Aus ATC (RADAR)
12:37AM -33.5898 150.7956 35° Northeast 99 114 4,900 240 Climbing Aus ATC (RADAR)
12:37AM -33.5844 150.8000 34° Northeast 99 114 5,000  Climbing Aus ATC (RADAR)
12:37AM -33.5695 150.8106 31° Northeast 105 121 4,900 -120 Descending Aus ATC (RADAR)
12:38AM -33.5429 150.8249 24° Northeast 117 135 4,900  Level Aus ATC (RADAR)
12:39AM -33.5264 150.8331 23° Northeast 111 128 4,900  Level Aus ATC (RADAR)
12:40AM -33.4990 150.8469 23° Northeast 117 135 4,900  Level Aus ATC (RADAR)
12:41AM -33.4595 150.8644 20° North 112 129 4,900  Level Aus ATC (RADAR)
12:42AM -33.4432 150.8753 29° Northeast 115 132 4,900  Level Aus ATC (RADAR)
12:42AM -33.4360 150.8810 33° Northeast 120 138 4,900  Level Aus ATC (RADAR)
12:43AM -33.4207 150.8963 40° Northeast 124 143 4,900  Level Aus ATC (RADAR)
12:43AM -33.3982 150.9189 40° Northeast 119 137 4,900  Level Aus ATC (RADAR)
12:44AM -33.3839 150.9336 41° Northeast 115 132 4,900  Level Aus ATC (RADAR)
12:45AM -33.3612 150.9516 34° Northeast 111 128 4,900  Level Aus ATC (RADAR)
12:45AM -33.3536 150.9576 33° Northeast 111 128 4,900  Level Aus ATC (RADAR)
12:48AM -33.2819 151.0126 360° North 5,000  Climbing Aus ATC (Calculated)
12:49AM -33.2819 151.0126 32° Northeast 5,000  Level Aus ATC (Calculated)
12:50AM -33.2626 151.0271 32° Northeast  Level FlightAware Approximate
12:51AM -33.2562 151.0319 32° Northeast  Level FlightAware Approximate
12:51AM -33.1971 151.0760 32° Northeast 5,000  Level Aus ATC (Calculated)
12:53AM -33.1664 151.0989 32° Northeast  Level FlightAware Approximate
12:53AM -33.1547 151.1077 360° North 5,000  Level Aus ATC (Calculated)
12:54AM -33.1547 151.1077 32° Northeast 5,000  Level Aus ATC (Calculated)
12:56AM -33.1218 151.1321 32° Northeast  Level FlightAware Approximate
12:57AM -33.1053 151.1445 32° Northeast  Level FlightAware Approximate
12:58AM -33.1218 151.1321 212° Southwest  Level FlightAware Approximate
12:58AM -33.2263 151.3518 303° West 5,000  Level Aus ATC (Calculated)
01:00AM -33.2113 151.3238 303° West  Level FlightAware Approximate
01:01AM -33.1996 151.3020 303° West  Level FlightAware Approximate
01:01AM -33.2500 151.4333 296° West 2,500  Level Aus ATC (Calculated)
01:02AM -33.1879 151.2802 303° West  Level FlightAware Approximate
01:03AM -33.2355 151.4024 299° West  Level FlightAware Approximate
01:04AM -33.2550 151.3908 119° Southeast  Level Estimated
01:05AM -33.2520 151.4165 82° East  Level FlightAware Approximate
01:06AM -33.2490 151.4422 82° East  Level FlightAware Approximate
01:07AM -33.2519 151.4165 262° West  Level FlightAware Approximate
01:08AM -33.2490 151.4422 82° East  Level FlightAware Approximate
01:09AM -33.2519 151.4165 262° West  Level FlightAware Approximate
01:10AM -33.2490 151.4422 82° East  Level FlightAware Approximate
01:11AM -33.2519 151.4165 262° West  Level FlightAware Approximate
01:12AM -33.2490 151.4422 82° East  Level FlightAware Approximate
01:13AM -33.2519 151.4165 262° West  Level FlightAware Approximate
01:14AM -33.2490 151.4422 82° East  Level FlightAware Approximate
01:14AM -33.5408 151.1958 34° Northeast 2,200  Level Aus ATC (Calculated)
01:16AM -33.5101 151.2210 34° Northeast  Level FlightAware Approximate
01:17AM -33.4921 151.2357 34° Northeast  Level FlightAware Approximate
01:18AM -33.5117 151.2245 214° Southwest  Level Estimated
01:19AM -33.5285 151.2080 219° Southwest  Level FlightAware Approximate
01:20AM -33.5452 151.1914 219° Southwest  Level FlightAware Approximate
01:21AM -33.5285 151.2080 39° Northeast  Level FlightAware Approximate
01:22AM -33.5452 151.1914 219° Southwest  Level FlightAware Approximate
01:23AM -33.5285 151.2080 39° Northeast  Level FlightAware Approximate
01:24AM -33.5452 151.1914 219° Southwest  Level FlightAware Approximate
01:25AM -33.5285 151.2080 39° Northeast  Level FlightAware Approximate
01:26AM -33.5452 151.1914 219° Southwest  Level FlightAware Approximate
01:26AM -33.8167 150.9167 40° Northeast  Level Aus ATC (Calculated)
01:27AM -33.5285 151.2080 39° Northeast  Level FlightAware Approximate
01:28AM -33.7999 150.9338 40° Northeast  Level FlightAware Approximate
01:29AM -33.7833 150.9506 40° Northeast  Level FlightAware Approximate
01:29AM -33.8706 150.9525 209° Southwest  Level Aus ATC (Calculated)
01:29AM -33.8706 150.9525 32° Northeast  Level Aus ATC (Calculated)
01:31AM -33.8444 150.9719 32° Northeast  Level FlightAware Approximate
01:32AM -33.8260 150.9856 32° Northeast  Level FlightAware Approximate
01:33AM -33.8075 150.9992 32° Northeast  Level FlightAware Approximate
01:34AM -33.8291 150.9972 220° Southwest  Level Estimated
01:35AM -33.8252 150.9716 280° West  Level FlightAware Approximate
01:36AM -33.8212 150.9459 281° West  Level FlightAware Approximate
01:37AM -33.8172 150.9202 281° West  Level FlightAware Approximate